createdAt,value
2022-10-22T00:01:30.148Z,99278.38
2022-10-22T00:03:58.462Z,99302.00
2022-10-22T00:06:27.007Z,99287.44
2022-10-22T00:08:55.819Z,99256.94
2022-10-22T00:11:24.300Z,99304.38
2022-10-22T00:13:52.858Z,99289.63
2022-10-22T00:16:21.279Z,99257.19
2022-10-22T00:18:49.592Z,99281.53
2022-10-22T00:21:18.125Z,99278.06
2022-10-22T00:23:46.624Z,99276.81
2022-10-22T00:26:15.677Z,99258.56
2022-10-22T00:28:44.214Z,99288.06
2022-10-22T00:31:12.636Z,99269.25
2022-10-22T00:33:41.207Z,99289.56
2022-10-22T00:36:10.153Z,99289.31
2022-10-22T00:38:40.005Z,99277.41
2022-10-22T00:41:09.506Z,99270.97
2022-10-22T00:43:56.535Z,99257.41
2022-10-22T00:46:24.958Z,99267.41
2022-10-22T00:48:55.211Z,99272.69
2022-10-22T00:51:26.584Z,99281.19
2022-10-22T00:54:01.075Z,99278.31
2022-10-22T00:56:30.057Z,99277.91
2022-10-22T00:59:01.415Z,99270.88
2022-10-22T01:01:33.004Z,99286.16
2022-10-22T01:04:02.145Z,99219.72
2022-10-22T01:06:33.116Z,99266.38
2022-10-22T01:09:14.240Z,99277.50
2022-10-22T01:11:51.976Z,99286.91
2022-10-22T01:14:26.336Z,99284.22
2022-10-22T01:17:06.335Z,99269.00
2022-10-22T01:19:50.711Z,99279.75
2022-10-22T01:22:30.612Z,99286.84
2022-10-22T01:25:17.998Z,99267.22
2022-10-22T01:27:49.502Z,99287.63
2022-10-22T01:30:19.360Z,99217.88
2022-10-22T01:32:52.716Z,99245.06
2022-10-22T01:35:29.812Z,99272.41
2022-10-22T01:38:02.138Z,99290.25
2022-10-22T01:40:31.455Z,99279.28
2022-10-22T01:43:05.559Z,99267.31
2022-10-22T01:45:44.316Z,99276.75
2022-10-22T01:48:25.355Z,99294.50
2022-10-22T01:51:16.558Z,99296.97
2022-10-22T01:54:02.518Z,99304.16
2022-10-22T01:57:06.466Z,99280.47
2022-10-22T02:00:00.737Z,99264.16
2022-10-22T02:02:49.022Z,99305.63
2022-10-22T02:05:24.169Z,99296.97
2022-10-22T02:08:03.388Z,99306.97
2022-10-22T02:10:32.277Z,99248.44
2022-10-22T02:13:02.459Z,99271.25
2022-10-22T02:15:34.013Z,99294.59
2022-10-22T02:18:03.596Z,99286.91
2022-10-22T02:20:37.631Z,99297.75
2022-10-22T02:23:06.901Z,99294.34
2022-10-22T02:25:39.618Z,99317.97
2022-10-22T02:28:38.330Z,99316.56
2022-10-22T02:31:15.542Z,99288.00
2022-10-22T02:33:50.178Z,99292.91
2022-10-22T02:36:19.970Z,99312.53
2022-10-22T02:38:50.581Z,99305.31
2022-10-22T02:41:21.436Z,99313.56
2022-10-22T02:43:56.466Z,99299.97
2022-10-22T02:46:26.603Z,99281.97
2022-10-22T02:48:55.081Z,99310.16
2022-10-22T02:51:23.549Z,99286.06
2022-10-22T02:53:52.091Z,99299.63
2022-10-22T02:56:20.638Z,99321.91
2022-10-22T02:58:52.183Z,99304.84
2022-10-22T03:01:20.842Z,99288.69
2022-10-22T03:03:49.594Z,99329.59
2022-10-22T03:06:18.984Z,99328.88
2022-10-22T03:08:47.702Z,99337.47
2022-10-22T03:11:16.112Z,99311.69
2022-10-22T03:13:47.192Z,99330.56
2022-10-22T03:16:15.541Z,99282.81
2022-10-22T03:18:44.279Z,99310.25
2022-10-22T03:21:31.801Z,99342.97
2022-10-22T03:24:04.919Z,99314.81
2022-10-22T03:26:34.720Z,99327.75
2022-10-22T03:29:03.520Z,99349.63
2022-10-22T03:31:32.326Z,99356.44
2022-10-22T03:34:01.083Z,99351.44
2022-10-22T03:36:29.617Z,99347.94
2022-10-22T03:38:58.388Z,99359.50
2022-10-22T03:41:27.655Z,99370.38
2022-10-22T03:43:58.004Z,99369.44
2022-10-22T03:46:26.537Z,99345.03
2022-10-22T03:48:57.738Z,99346.75
2022-10-22T03:51:29.039Z,99361.25
2022-10-22T03:53:57.513Z,99350.16
2022-10-22T03:56:26.192Z,99377.66
2022-10-22T03:58:58.362Z,99369.34
2022-10-22T04:01:28.737Z,99377.97
2022-10-22T04:03:58.374Z,99333.03
2022-10-22T04:06:27.101Z,99382.31
2022-10-22T04:08:55.737Z,99361.75
2022-10-22T04:11:24.435Z,99328.97
2022-10-22T04:13:52.879Z,99343.25
2022-10-22T04:16:25.049Z,99350.91
2022-10-22T04:18:55.878Z,99326.94
2022-10-22T04:21:24.819Z,99286.00
2022-10-22T04:23:54.476Z,99327.41
2022-10-22T04:26:23.360Z,99297.38
2022-10-22T04:28:53.063Z,99302.34
2022-10-22T04:31:24.442Z,99269.72
2022-10-22T04:33:57.175Z,99279.75
2022-10-22T04:36:26.222Z,99270.50
2022-10-22T04:39:01.035Z,99282.22
2022-10-22T04:41:35.459Z,99304.91
2022-10-22T04:44:04.755Z,99307.03
2022-10-22T04:46:36.605Z,99318.34
2022-10-22T04:49:05.955Z,99308.63
2022-10-22T04:51:34.468Z,99328.84
2022-10-22T04:54:03.325Z,99305.28
2022-10-22T04:56:33.084Z,99325.59
2022-10-22T04:59:08.181Z,99311.16
2022-10-22T05:01:42.663Z,99306.06
2022-10-22T05:04:17.526Z,99285.50
2022-10-22T05:06:46.292Z,99286.59
2022-10-22T05:09:18.596Z,99297.38
2022-10-22T05:11:50.627Z,99284.75
2022-10-22T05:14:22.347Z,99282.28
2022-10-22T05:16:51.557Z,99266.28
2022-10-22T05:19:25.518Z,99301.19
2022-10-22T05:21:56.108Z,99304.34
2022-10-22T05:24:24.951Z,99244.06
2022-10-22T05:26:58.010Z,99280.50
2022-10-22T05:29:27.261Z,99288.09
2022-10-22T05:31:56.218Z,99296.75
2022-10-22T05:34:24.729Z,99270.91
2022-10-22T05:36:53.469Z,99269.66
2022-10-22T05:39:22.128Z,99243.00
2022-10-22T05:41:50.607Z,99262.44
2022-10-22T05:44:19.310Z,99239.34
2022-10-22T05:46:51.265Z,99234.25
2022-10-22T05:49:19.743Z,99252.59
2022-10-22T05:51:48.321Z,99248.34
2022-10-22T05:54:21.286Z,99243.06
2022-10-22T05:56:50.089Z,99252.59
2022-10-22T05:59:18.411Z,99182.81
2022-10-22T06:01:47.146Z,99240.63
2022-10-22T06:04:16.915Z,99233.38
2022-10-22T06:06:48.777Z,99248.84
2022-10-22T06:09:22.857Z,99226.78
2022-10-22T06:11:52.160Z,99235.34
2022-10-22T06:14:22.075Z,99233.56
2022-10-22T06:16:51.517Z,99247.00
2022-10-22T06:19:22.473Z,99217.59
2022-10-22T06:21:51.133Z,99243.75
2022-10-22T06:24:20.357Z,99261.84
2022-10-22T06:26:53.074Z,99242.38
2022-10-22T06:29:22.215Z,99251.38
2022-10-22T06:31:51.237Z,99240.50
2022-10-22T06:34:19.918Z,99247.31
2022-10-22T06:36:48.656Z,99242.47
2022-10-22T06:39:19.055Z,99261.41
2022-10-22T06:41:47.915Z,99237.97
2022-10-22T06:44:20.600Z,99245.13
2022-10-22T06:46:55.339Z,99256.91
2022-10-22T06:49:23.822Z,99245.78
2022-10-22T06:51:54.260Z,99248.84
2022-10-22T06:54:23.714Z,99230.41
2022-10-22T06:56:55.901Z,99222.25
2022-10-22T06:59:24.339Z,99250.38
2022-10-22T07:01:52.971Z,99231.53
2022-10-22T07:04:21.782Z,99225.44
2022-10-22T07:06:50.494Z,99222.09
2022-10-22T07:11:52.579Z,99233.13
2022-10-22T07:14:21.019Z,99239.94
2022-10-22T07:16:49.503Z,99230.66
2022-10-22T07:19:18.281Z,99210.09
2022-10-22T07:21:46.782Z,99217.69
2022-10-22T07:24:17.712Z,99191.13
2022-10-22T07:26:46.391Z,99164.69
2022-10-22T07:29:16.361Z,99144.19
2022-10-22T07:31:45.473Z,99150.81
2022-10-22T07:34:14.301Z,99165.00
2022-10-22T07:36:43.231Z,99148.63
2022-10-22T07:39:11.932Z,99148.09
2022-10-22T07:41:40.403Z,99126.41
2022-10-22T07:44:08.996Z,99132.22
2022-10-22T07:46:37.560Z,99158.66
2022-10-22T07:49:06.641Z,99163.03
2022-10-22T07:51:35.227Z,99142.59
2022-10-22T07:54:04.172Z,99088.28
2022-10-22T07:56:32.822Z,99127.91
2022-10-22T08:01:31.007Z,99142.75
2022-10-22T08:03:59.609Z,99121.97
2022-10-22T08:06:27.995Z,99107.50
2022-10-22T08:08:56.862Z,99130.38
2022-10-22T08:11:25.886Z,99101.38
2022-10-22T08:13:54.738Z,99118.25
2022-10-22T08:16:23.660Z,99105.44
2022-10-22T08:18:52.380Z,99084.16
2022-10-22T08:21:20.947Z,99107.06
2022-10-22T08:23:49.527Z,99087.72
2022-10-22T08:26:18.990Z,99088.41
2022-10-22T08:28:50.101Z,99096.97
2022-10-22T08:31:19.069Z,99091.78
2022-10-22T08:33:47.491Z,99090.69
2022-10-22T08:36:19.023Z,99037.78
2022-10-22T08:38:47.742Z,99031.59
2022-10-22T08:41:21.567Z,99087.81
2022-10-22T08:44:36.656Z,99064.75
2022-10-22T08:47:34.333Z,99066.44
2022-10-22T08:50:06.046Z,99066.59
2022-10-22T08:52:35.804Z,99068.31
2022-10-22T09:01:48.868Z,99067.75
2022-10-22T09:04:43.791Z,99040.78
2022-10-22T09:07:12.766Z,99050.66
2022-10-22T09:09:48.747Z,99031.97
2022-10-22T09:12:20.287Z,99016.03
2022-10-22T09:14:49.455Z,98968.69
2022-10-22T09:17:46.470Z,98969.00
2022-10-22T09:20:40.459Z,99035.50
2022-10-22T09:23:49.047Z,99031.59
2022-10-22T09:26:18.547Z,99024.94
2022-10-22T09:28:51.679Z,98990.19
2022-10-22T09:31:20.371Z,99002.75
2022-10-22T09:33:51.703Z,99001.97
2022-10-22T09:36:23.694Z,98975.75
2022-10-22T09:38:54.165Z,98970.53
2022-10-22T09:41:27.106Z,98985.41
2022-10-22T09:43:55.789Z,98964.34
2022-10-22T09:46:29.792Z,98980.84
2022-10-22T09:49:01.154Z,98986.19
2022-10-22T09:51:43.121Z,98980.56
2022-10-22T09:54:33.801Z,98950.03
2022-10-22T09:57:22.770Z,98952.56
2022-10-22T09:59:58.180Z,98926.56
2022-10-22T10:02:44.718Z,98948.75
2022-10-22T10:05:25.755Z,98925.94
2022-10-22T10:07:54.300Z,98927.88
2022-10-22T10:10:33.364Z,98927.19
2022-10-22T10:13:28.040Z,98907.97
2022-10-22T10:16:04.981Z,98923.31
2022-10-22T10:18:59.340Z,98922.13
2022-10-22T10:22:11.282Z,98899.94
2022-10-22T10:25:12.942Z,98938.84
2022-10-22T10:27:49.832Z,98858.97
2022-10-22T10:30:21.787Z,98930.34
2022-10-22T10:33:19.855Z,98924.63
2022-10-22T10:36:09.549Z,98923.22
2022-10-22T10:39:09.665Z,98928.09
2022-10-22T10:41:52.606Z,98916.38
2022-10-22T10:44:32.288Z,98918.50
2022-10-22T10:47:28.370Z,98917.03
2022-10-22T10:50:22.517Z,98893.47
2022-10-22T10:53:03.155Z,98912.28
2022-10-22T10:55:39.722Z,98876.38
2022-10-22T10:58:38.782Z,98866.53
2022-10-22T11:01:25.319Z,98888.75
2022-10-22T11:04:40.199Z,98876.41
2022-10-22T11:07:23.416Z,98888.34
2022-10-22T11:10:25.328Z,98849.25
2022-10-22T11:13:00.185Z,98857.22
2022-10-22T11:15:39.174Z,98861.53
2022-10-22T11:18:33.376Z,98869.19
2022-10-22T11:21:30.465Z,98808.03
2022-10-22T11:24:36.517Z,98864.41
2022-10-22T11:27:12.421Z,98866.66
2022-10-22T11:29:48.749Z,98847.47
2022-10-22T11:32:22.003Z,98851.13
2022-10-22T11:35:01.921Z,98812.47
2022-10-22T11:37:39.647Z,98850.75
2022-10-22T11:40:08.628Z,98865.34
2022-10-22T11:42:47.437Z,98817.50
2022-10-22T11:45:15.818Z,98837.81
2022-10-22T11:48:10.880Z,98828.94
2022-10-22T11:50:43.300Z,98853.06
2022-10-22T11:53:32.236Z,98843.72
2022-10-22T11:56:13.898Z,98833.69
2022-10-22T11:58:52.160Z,98815.00
2022-10-22T12:01:42.249Z,98820.94
2022-10-22T12:04:20.136Z,98789.41
2022-10-22T12:07:02.697Z,98767.81
2022-10-22T12:09:34.250Z,98771.75
2022-10-22T12:12:11.043Z,98782.88
2022-10-22T12:14:54.570Z,98778.00
2022-10-22T12:17:23.892Z,98765.34
2022-10-22T12:20:26.426Z,98783.59
2022-10-22T12:22:56.482Z,98763.75
2022-10-22T12:25:34.749Z,98747.44
2022-10-22T12:28:04.803Z,98734.69
2022-10-22T12:30:38.024Z,98763.09
2022-10-22T12:33:09.097Z,98696.69
2022-10-22T12:35:45.377Z,98725.50
2022-10-22T12:38:22.609Z,98744.31
2022-10-22T12:40:52.581Z,98761.50
2022-10-22T12:43:26.529Z,98766.72
2022-10-22T12:45:55.719Z,98758.91
2022-10-22T12:48:31.527Z,98716.06
2022-10-22T12:51:02.737Z,98701.38
2022-10-22T12:53:35.808Z,98707.47
2022-10-22T12:56:17.195Z,98724.38
2022-10-22T12:58:54.108Z,98709.19
2022-10-22T13:01:22.887Z,98706.59
2022-10-22T13:04:04.932Z,98724.41
2022-10-22T13:06:37.171Z,98685.16
2022-10-22T13:09:19.678Z,98694.22
2022-10-22T13:12:05.877Z,98685.56
2022-10-22T13:14:36.944Z,98666.97
2022-10-22T13:17:20.572Z,98656.88
2022-10-22T13:20:03.022Z,98670.16
2022-10-22T13:22:40.419Z,98669.25
2022-10-22T13:25:15.051Z,98657.97
2022-10-22T13:27:47.828Z,98670.88
2022-10-22T13:30:38.456Z,98657.19
2022-10-22T13:33:22.005Z,98646.00
2022-10-22T13:35:50.505Z,98624.69
2022-10-22T13:38:24.649Z,98651.91
2022-10-22T13:40:57.041Z,98608.56
2022-10-22T13:43:26.269Z,98638.09
2022-10-22T13:45:59.200Z,98640.63
2022-10-22T13:48:31.195Z,98620.03
2022-10-22T13:50:59.901Z,98597.03
2022-10-22T13:53:30.320Z,98615.66
2022-10-22T13:55:59.019Z,98582.50
2022-10-22T13:58:27.524Z,98598.59
2022-10-22T14:01:00.669Z,98598.00
2022-10-22T14:03:38.984Z,98590.13
2022-10-22T14:06:14.201Z,98593.25
2022-10-22T14:08:43.435Z,98550.78
2022-10-22T14:11:15.402Z,98581.16
2022-10-22T14:13:43.983Z,98560.47
2022-10-22T14:16:22.523Z,98586.66
2022-10-22T14:18:51.425Z,98540.66
2022-10-22T14:21:20.915Z,98535.31
2022-10-22T14:23:51.730Z,98514.88
2022-10-22T14:26:25.246Z,98554.75
2022-10-22T14:29:10.787Z,98524.72
2022-10-22T14:31:42.550Z,98476.03
2022-10-22T14:34:16.306Z,98513.16
2022-10-22T14:36:47.168Z,98501.50
2022-10-22T14:39:17.707Z,98510.69
2022-10-22T14:41:46.300Z,98500.34
2022-10-22T14:44:15.205Z,98466.28
2022-10-22T14:46:44.950Z,98491.41
2022-10-22T14:49:13.586Z,98458.25
2022-10-22T14:51:42.387Z,98467.03
2022-10-22T14:54:10.657Z,98441.47
2022-10-22T14:56:39.254Z,98458.13
2022-10-22T14:59:07.645Z,98434.44
2022-10-22T15:01:36.546Z,98420.84
2022-10-22T15:04:05.205Z,98427.53
2022-10-22T15:06:34.087Z,98415.56
2022-10-22T15:09:03.044Z,98447.00
2022-10-22T15:11:31.418Z,98404.44
2022-10-22T15:13:59.912Z,98408.59
2022-10-22T15:16:28.585Z,98412.09
2022-10-22T15:18:57.873Z,98390.44
2022-10-22T15:21:26.524Z,98383.34
2022-10-22T15:23:55.126Z,98389.31
2022-10-22T15:26:23.806Z,98391.13
2022-10-22T15:28:52.485Z,98381.34
2022-10-22T15:31:47.609Z,98390.50
2022-10-22T15:34:27.966Z,98406.84
2022-10-22T15:36:58.825Z,98373.16
2022-10-22T15:39:28.148Z,98363.78
2022-10-22T15:41:57.245Z,98357.72
2022-10-22T15:44:29.584Z,98377.31
2022-10-22T15:46:59.029Z,98306.94
2022-10-22T15:49:29.285Z,98362.88
2022-10-22T15:51:57.786Z,98368.00
2022-10-22T15:54:30.646Z,98359.34
2022-10-22T15:57:02.467Z,98305.25
2022-10-22T15:59:31.452Z,98352.44
2022-10-22T16:01:59.906Z,98360.06
2022-10-22T16:04:28.487Z,98349.72
2022-10-22T16:06:58.467Z,98373.50
2022-10-22T16:09:28.827Z,98318.28
2022-10-22T16:11:57.575Z,98345.31
2022-10-22T16:14:26.367Z,98334.47
2022-10-22T16:16:56.360Z,98347.94
2022-10-22T16:19:26.428Z,98288.69
2022-10-22T16:21:56.714Z,98335.25
2022-10-22T16:24:25.205Z,98331.09
2022-10-22T16:26:53.968Z,98320.91
2022-10-22T16:29:22.625Z,98338.09
2022-10-22T16:31:51.305Z,98344.78
2022-10-22T16:34:19.866Z,98285.41
2022-10-22T16:36:49.714Z,98348.03
2022-10-22T16:39:18.426Z,98326.03
2022-10-22T16:41:47.727Z,98332.00
2022-10-22T16:44:16.508Z,98347.25
2022-10-22T16:46:45.167Z,98316.88
2022-10-22T16:49:13.776Z,98325.97
2022-10-22T16:51:42.446Z,98318.19
2022-10-22T16:54:13.285Z,98342.03
2022-10-22T16:56:41.947Z,98347.09
2022-10-22T16:59:10.310Z,98324.06
2022-10-22T17:01:41.186Z,98318.94
2022-10-22T17:04:10.661Z,98312.84
2022-10-22T17:06:39.348Z,98320.16
2022-10-22T17:09:08.067Z,98311.44
2022-10-22T17:11:38.156Z,98316.94
2022-10-22T17:14:08.940Z,98320.03
2022-10-22T17:16:37.622Z,98303.47
2022-10-22T17:19:06.486Z,98319.63
2022-10-22T17:21:35.104Z,98303.16
2022-10-22T17:24:03.562Z,98336.69
2022-10-22T17:26:34.016Z,98315.59
2022-10-22T17:29:02.524Z,98260.34
2022-10-22T17:31:35.040Z,98304.34
2022-10-22T17:34:04.780Z,98296.94
2022-10-22T17:36:35.890Z,98317.09
2022-10-22T17:39:08.158Z,98329.13
2022-10-22T17:41:38.213Z,98316.50
2022-10-22T17:44:09.773Z,98326.53
2022-10-22T17:46:39.081Z,98299.28
2022-10-22T17:49:14.299Z,98313.78
2022-10-22T17:51:42.857Z,98289.91
2022-10-22T17:54:11.472Z,98319.47
2022-10-22T17:56:41.036Z,98293.78
2022-10-22T17:59:13.202Z,98282.03
2022-10-22T18:01:46.102Z,98294.91
2022-10-22T18:04:16.910Z,98295.38
2022-10-22T18:06:48.639Z,98294.56
2022-10-22T18:09:19.807Z,98249.84
2022-10-22T18:11:51.346Z,98308.06
2022-10-22T18:14:22.288Z,98293.56
2022-10-22T18:16:51.485Z,98277.59
2022-10-22T18:19:23.459Z,98290.19
2022-10-22T18:21:52.957Z,98288.47
2022-10-22T18:24:21.797Z,98291.88
2022-10-22T18:26:50.323Z,98289.25
2022-10-22T18:29:20.568Z,98282.81
2022-10-22T18:31:50.228Z,98287.09
2022-10-22T18:34:21.688Z,98279.56
2022-10-22T18:36:52.640Z,98330.03
2022-10-22T18:39:21.583Z,98319.63
2022-10-22T18:41:51.652Z,98294.19
2022-10-22T18:44:20.369Z,98291.59
2022-10-22T18:46:49.308Z,98289.56
2022-10-22T18:49:20.646Z,98295.25
2022-10-22T18:51:53.276Z,98303.78
2022-10-22T18:54:24.144Z,98305.66
2022-10-22T18:56:56.254Z,98297.16
2022-10-22T18:59:27.912Z,98284.97
2022-10-22T19:02:00.599Z,98285.66
2022-10-22T19:04:34.225Z,98237.44
2022-10-22T19:07:04.045Z,98327.22
2022-10-22T19:09:32.806Z,98336.03
2022-10-22T19:12:01.732Z,98297.34
2022-10-22T19:14:31.875Z,98329.25
2022-10-22T19:17:00.317Z,98330.16
2022-10-22T19:19:29.077Z,98333.03
2022-10-22T19:22:00.158Z,98360.38
2022-10-22T19:24:28.628Z,98346.34
2022-10-22T19:26:57.207Z,98351.44
2022-10-22T19:29:25.661Z,98340.38
2022-10-22T19:31:54.771Z,98338.09
2022-10-22T19:34:23.304Z,98347.41
2022-10-22T19:36:54.840Z,98370.44
2022-10-22T19:39:23.252Z,98380.88
2022-10-22T19:41:51.972Z,98384.94
2022-10-22T19:44:20.624Z,98352.94
2022-10-22T19:46:49.604Z,98388.38
2022-10-22T19:49:22.092Z,98368.31
2022-10-22T19:51:51.625Z,98390.34
2022-10-22T19:54:20.941Z,98353.16
2022-10-22T19:56:50.440Z,98423.13
2022-10-22T19:59:21.198Z,98373.00
2022-10-22T20:01:50.901Z,98391.66
2022-10-22T20:04:21.032Z,98378.00
2022-10-22T20:06:51.106Z,98399.56
2022-10-22T20:09:19.870Z,98401.03
2022-10-22T20:11:48.599Z,98404.44
2022-10-22T20:14:17.576Z,98435.16
2022-10-22T20:16:46.317Z,98422.53
2022-10-22T20:19:16.965Z,98418.88
2022-10-22T20:21:46.395Z,98406.25
2022-10-22T20:24:15.283Z,98433.84
2022-10-22T20:26:46.991Z,98438.19
2022-10-22T20:29:17.285Z,98451.75
2022-10-22T20:31:46.756Z,98451.53
2022-10-22T20:34:15.414Z,98475.00
2022-10-22T20:36:44.035Z,98459.47
2022-10-22T20:39:15.550Z,98487.88
2022-10-22T20:41:43.818Z,98492.53
2022-10-22T20:44:16.236Z,98485.22
2022-10-22T20:46:45.058Z,98503.50
2022-10-22T20:49:16.954Z,98530.06
2022-10-22T20:51:45.652Z,98518.91
2022-10-22T20:54:15.276Z,98520.94
2022-10-22T20:56:44.534Z,98553.56
2022-10-22T20:59:13.493Z,98505.25
2022-10-22T21:01:53.856Z,98539.38
2022-10-22T21:04:22.936Z,98558.03
2022-10-22T21:06:52.974Z,98532.59
2022-10-22T21:09:22.173Z,98565.09
2022-10-22T21:11:51.379Z,98555.38
2022-10-22T21:14:22.905Z,98560.63
2022-10-22T21:16:53.003Z,98581.91
2022-10-22T21:19:23.145Z,98579.59
2022-10-22T21:21:51.878Z,98599.31
2022-10-22T21:24:25.511Z,98589.22
2022-10-22T21:26:54.838Z,98615.94
2022-10-22T21:29:26.631Z,98609.88
2022-10-22T21:31:55.234Z,98646.75
2022-10-22T21:34:23.935Z,98643.53
2022-10-22T21:36:53.696Z,98618.84
2022-10-22T21:39:22.510Z,98658.34
2022-10-22T21:41:53.853Z,98649.94
2022-10-22T21:44:22.789Z,98669.06
2022-10-22T21:46:51.449Z,98691.16
2022-10-22T21:49:20.101Z,98677.56
2022-10-22T21:51:49.243Z,98669.69
2022-10-22T21:54:18.231Z,98714.91
2022-10-22T21:56:47.072Z,98688.66
2022-10-22T21:59:15.836Z,98708.31
2022-10-22T22:01:45.384Z,98729.44
2022-10-22T22:04:16.040Z,98713.41
2022-10-22T22:06:45.811Z,98716.94
2022-10-22T22:09:14.575Z,98727.22
2022-10-22T22:11:43.130Z,98661.00
2022-10-22T22:14:12.730Z,98747.56
2022-10-22T22:16:41.637Z,98731.59
2022-10-22T22:19:13.575Z,98725.78
2022-10-22T22:21:42.900Z,98772.50
2022-10-22T22:24:14.050Z,98743.72
2022-10-22T22:26:45.646Z,98767.66
2022-10-22T22:29:14.329Z,98779.53
2022-10-22T22:31:44.135Z,98770.03
2022-10-22T22:34:17.081Z,98804.91
2022-10-22T22:36:47.909Z,98805.19
2022-10-22T22:39:22.530Z,98820.41
2022-10-22T22:41:51.114Z,98811.00
2022-10-22T22:44:20.383Z,98775.34
2022-10-22T22:46:49.519Z,98791.44
2022-10-22T22:49:18.396Z,98790.63
2022-10-22T22:51:46.895Z,98834.94
2022-10-22T22:54:16.830Z,98834.31
2022-10-22T22:56:45.872Z,98846.31
2022-10-22T22:59:16.447Z,98799.69
2022-10-22T23:01:48.616Z,98827.88
2022-10-22T23:04:23.535Z,98845.84
2022-10-22T23:06:52.487Z,98875.44
2022-10-22T23:09:21.886Z,98849.00
2022-10-22T23:11:51.817Z,98874.63
2022-10-22T23:14:21.503Z,98887.75
2022-10-22T23:16:53.077Z,98898.00
2022-10-22T23:19:24.306Z,98879.22
2022-10-22T23:21:55.489Z,98883.88
2022-10-22T23:24:26.665Z,98904.19
2022-10-22T23:26:57.061Z,98916.41
2022-10-22T23:29:28.777Z,98922.47
2022-10-22T23:32:07.963Z,98913.31
2022-10-22T23:34:41.282Z,98882.75
2022-10-22T23:37:13.426Z,98929.00
2022-10-22T23:39:42.642Z,98923.09
2022-10-22T23:42:11.223Z,98939.44
2022-10-22T23:44:39.756Z,98957.28
2022-10-22T23:47:08.564Z,98943.81
2022-10-22T23:49:41.486Z,98931.97
2022-10-22T23:52:11.422Z,98913.53
2022-10-22T23:54:40.014Z,98913.59
2022-10-22T23:57:09.133Z,98954.81
2022-10-22T23:59:37.971Z,98986.53
